Time;durP1;ratioP1;P1;durP2;ratioP2;P2;SDS_P1;SDS_P2;PMS_P1;PMS_P2;Temp;Humidity;BMP_temperature;BMP_pressure;BME280_temperature;BME280_humidity;BME280_pressure;Samples;Min_cycle;Max_cycle;Signal;HPM_P1;HPM_P2
2022/10/30 00:00:47;;;;;;;17.12;10.08;;;;;;;12.79;100.00;98283.58;1773432;80;21033;-59
2022/10/30 00:03:16;;;;;;;14.87;9.35;;;;;;;12.82;100.00;98271.44;1723335;80;21033;-60
2022/10/30 00:05:44;;;;;;;15.43;8.88;;;;;;;12.83;99.98;98271.70;1777007;80;20978;-60
2022/10/30 00:08:11;;;;;;;18.62;9.18;;;;;;;12.82;100.00;98262.03;1773105;80;20935;-59
2022/10/30 00:10:39;;;;;;;16.87;10.08;;;;;;;12.80;100.00;98273.09;1773460;80;21111;-60
2022/10/30 00:13:07;;;;;;;17.95;9.40;;;;;;;12.81;100.00;98281.96;1775193;80;21432;-60
2022/10/30 00:15:35;;;;;;;14.60;8.65;;;;;;;12.81;100.00;98268.52;1773523;80;21003;-59
2022/10/30 00:18:02;;;;;;;15.15;8.98;;;;;;;12.80;100.00;98264.23;1774993;80;20985;-59
2022/10/30 00:20:29;;;;;;;18.85;10.20;;;;;;;12.80;100.00;98265.57;1771893;80;20955;-59
2022/10/30 00:22:57;;;;;;;14.78;9.98;;;;;;;12.79;100.00;98258.59;1773486;80;21316;-59
2022/10/30 00:25:24;;;;;;;17.98;9.55;;;;;;;12.78;100.00;98270.45;1770003;80;20954;-59
2022/10/30 00:27:50;;;;;;;16.17;10.00;;;;;;;12.75;100.00;98269.16;1777091;80;21478;-59
2022/10/30 00:30:17;;;;;;;16.55;9.38;;;;;;;12.74;100.00;98272.92;1773470;80;20978;-59
2022/10/30 00:32:44;;;;;;;16.60;10.03;;;;;;;12.74;100.00;98268.89;1774683;80;20864;-58
2022/10/30 00:35:11;;;;;;;17.62;9.50;;;;;;;12.75;100.00;98271.03;1775219;80;21228;-59
2022/10/30 00:37:38;;;;;;;13.60;9.13;;;;;;;12.73;100.00;98266.51;1773391;80;21387;-59
2022/10/30 00:40:08;;;;;;;14.87;9.10;;;;;;;12.72;100.00;98272.97;1772855;80;20948;-59
2022/10/30 00:42:35;;;;;;;14.53;8.85;;;;;;;12.71;100.00;98274.88;1772092;80;20938;-59
2022/10/30 00:45:05;;;;;;;18.10;9.90;;;;;;;12.69;100.00;98273.04;1773035;80;20971;-58
2022/10/30 00:47:35;;;;;;;13.35;9.95;;;;;;;12.71;100.00;98279.45;1777078;80;21532;-59
2022/10/30 00:50:24;;;;;;;13.62;9.50;;;;;;;12.72;100.00;98281.83;1775151;80;20964;-59
2022/10/30 00:53:01;;;;;;;15.78;9.60;;;;;;;12.74;100.00;98274.27;1775215;80;20864;-59
2022/10/30 00:55:38;;;;;;;15.65;10.20;;;;;;;12.73;100.00;98264.63;1777091;80;20911;-59
2022/10/30 00:58:07;;;;;;;19.77;10.53;;;;;;;12.76;100.00;98264.04;1746156;80;21006;-58
2022/10/30 01:00:34;;;;;;;14.58;9.13;;;;;;;12.75;100.00;98262.44;1773347;80;21154;-59
2022/10/30 01:03:01;;;;;;;15.32;9.53;;;;;;;12.73;100.00;98269.20;1776353;80;20868;-58
2022/10/30 01:05:28;;;;;;;19.45;9.03;;;;;;;12.74;100.00;98266.20;1720553;80;20927;-59
2022/10/30 01:07:55;;;;;;;16.30;9.88;;;;;;;12.73;100.00;98270.00;1770905;80;20990;-58
2022/10/30 01:10:22;;;;;;;18.77;10.68;;;;;;;12.72;100.00;98272.42;1775240;80;21050;-59
2022/10/30 01:12:50;;;;;;;16.27;10.03;;;;;;;12.72;100.00;98266.25;1773949;80;22015;-59
2022/10/30 01:15:19;;;;;;;12.28;9.18;;;;;;;12.70;100.00;98257.69;1776801;80;21082;-59
2022/10/30 01:18:34;;;;;;;15.25;10.00;;;;;;;12.68;100.00;98253.16;1774666;80;20998;-58
2022/10/30 01:21:13;;;;;;;18.30;10.85;;;;;;;12.66;100.00;98255.35;1773311;80;20991;-59
2022/10/30 01:23:51;;;;;;;15.60;9.58;;;;;;;12.66;100.00;98252.67;1775189;80;21003;-60
2022/10/30 01:26:29;;;;;;;12.93;9.13;;;;;;;12.64;100.00;98252.17;1771551;80;21556;-59
2022/10/30 01:29:36;;;;;;;20.52;9.90;;;;;;;12.61;100.00;98249.53;1746287;80;20864;-58
2022/10/30 01:32:30;;;;;;;20.40;9.73;;;;;;;12.59;100.00;98246.89;1774548;80;21007;-57
2022/10/30 01:35:25;;;;;;;16.20;9.75;;;;;;;12.58;100.00;98246.63;1777084;80;20985;-58
2022/10/30 01:38:13;;;;;;;16.87;10.82;;;;;;;12.58;100.00;98239.91;1773654;80;21025;-57
2022/10/30 01:40:42;;;;;;;19.12;9.38;;;;;;;12.59;100.00;98250.38;1767447;80;20892;-58
2022/10/30 01:43:09;;;;;;;17.30;8.98;;;;;;;12.57;100.00;98255.80;1746994;80;21074;-58
2022/10/30 01:46:15;;;;;;;16.12;9.80;;;;;;;12.53;100.00;98257.48;1776916;80;20959;-57
2022/10/30 01:49:15;;;;;;;16.15;9.25;;;;;;;12.53;100.00;98256.14;1773556;80;21549;-58
2022/10/30 01:52:28;;;;;;;15.10;9.50;;;;;;;12.52;100.00;98265.28;1771595;80;20907;-57
2022/10/30 01:55:08;;;;;;;14.30;9.33;;;;;;;12.48;100.00;98266.98;1773879;80;21989;-57
2022/10/30 01:57:58;;;;;;;12.65;8.85;;;;;;;12.45;100.00;98273.73;1774022;80;21062;-58
2022/10/30 02:00:25;;;;;;;14.28;9.45;;;;;;;12.45;100.00;98278.30;1773596;80;21062;-58
2022/10/30 02:02:52;;;;;;;14.83;9.13;;;;;;;12.45;100.00;98275.62;1771959;80;21525;-58
2022/10/30 02:05:38;;;;;;;18.87;9.68;;;;;;;12.43;100.00;98265.17;1722727;80;21025;-58
2022/10/30 02:08:05;;;;;;;17.67;9.68;;;;;;;12.42;100.00;98272.17;1773304;80;21275;-57
2022/10/30 02:10:35;;;;;;;16.12;10.18;;;;;;;12.41;100.00;98277.31;1775399;80;20998;-58
2022/10/30 02:13:03;;;;;;;18.45;9.90;;;;;;;12.39;100.00;98274.12;1771926;80;21518;-58
2022/10/30 02:15:30;;;;;;;12.73;9.08;;;;;;;12.39;100.00;98274.12;1773607;80;20991;-58
2022/10/30 02:17:58;;;;;;;13.75;9.40;;;;;;;12.38;100.00;98279.23;1773643;80;20926;-58
2022/10/30 02:20:25;;;;;;;12.40;9.50;;;;;;;12.34;100.00;98282.50;1774504;80;21465;-59
2022/10/30 02:22:52;;;;;;;14.03;9.60;;;;;;;12.34;100.00;98282.50;1774586;80;20988;-58
2022/10/30 02:25:18;;;;;;;15.00;8.93;;;;;;;12.30;100.00;98287.41;1773652;80;20951;-57
2022/10/30 02:27:45;;;;;;;13.80;9.03;;;;;;;12.30;100.00;98290.90;1772343;80;21003;-58
2022/10/30 02:30:13;;;;;;;17.30;9.90;;;;;;;12.29;100.00;98302.72;1773321;80;21162;-58
2022/10/30 02:32:40;;;;;;;17.45;9.45;;;;;;;12.27;100.00;98294.16;1772098;80;21487;-58
2022/10/30 02:35:09;;;;;;;15.55;9.38;;;;;;;12.25;100.00;98297.69;1773573;80;21040;-58
2022/10/30 02:37:36;;;;;;;17.37;10.20;;;;;;;12.23;100.00;98295.84;1773994;80;20955;-58
2022/10/30 02:40:10;;;;;;;14.43;10.32;;;;;;;12.26;100.00;98297.95;1777076;80;20947;-57
2022/10/30 02:42:38;;;;;;;19.95;11.28;;;;;;;12.27;100.00;98296.84;1773681;80;20951;-58
2022/10/30 02:45:06;;;;;;;13.80;9.98;;;;;;;12.24;100.00;98285.37;1775445;80;21059;-59
2022/10/30 02:47:34;;;;;;;15.58;8.98;;;;;;;12.21;100.00;98289.98;1775432;80;20975;-57
2022/10/30 02:50:00;;;;;;;15.48;10.08;;;;;;;12.17;100.00;98297.03;1773672;80;20967;-57
2022/10/30 02:52:27;;;;;;;17.40;10.90;;;;;;;12.15;100.00;98297.07;1773418;80;20935;-58
2022/10/30 02:54:53;;;;;;;15.88;10.30;;;;;;;12.12;100.00;98310.53;1772074;80;21014;-58
2022/10/30 02:57:20;;;;;;;12.63;9.98;;;;;;;12.14;100.00;98316.41;1771384;80;21206;-58
2022/10/30 02:59:47;;;;;;;17.17;10.03;;;;;;;12.14;100.00;98320.97;1772350;80;20895;-58
2022/10/30 03:02:14;;;;;;;15.13;9.73;;;;;;;12.13;100.00;98316.14;1775248;80;20982;-58
2022/10/30 03:04:41;;;;;;;15.75;11.12;;;;;;;12.13;100.00;98312.11;1777235;80;21427;-58
2022/10/30 03:07:10;;;;;;;19.37;10.60;;;;;;;12.15;100.00;98312.61;1772430;80;20960;-59
2022/10/30 03:09:37;;;;;;;15.38;10.38;;;;;;;12.15;100.00;98305.91;1772979;80;21098;-59
2022/10/30 03:12:06;;;;;;;18.85;10.03;;;;;;;12.16;100.00;98293.28;1773621;80;21569;-58
2022/10/30 03:14:32;;;;;;;16.25;9.98;;;;;;;12.15;100.00;98297.84;1775274;80;20983;-58
2022/10/30 03:17:01;;;;;;;17.05;10.65;;;;;;;12.15;100.00;98301.87;1774495;80;20970;-59
2022/10/30 03:19:27;;;;;;;21.68;11.20;;;;;;;12.17;100.00;98305.09;1768844;80;20916;-58
2022/10/30 03:21:54;;;;;;;16.97;10.82;;;;;;;12.17;100.00;98299.72;1773462;80;21936;-58
2022/10/30 03:24:22;;;;;;;17.10;11.00;;;;;;;12.16;100.00;98308.05;1775282;80;20900;-59
2022/10/30 03:26:49;;;;;;;17.27;11.00;;;;;;;12.14;100.00;98302.98;1777079;80;20903;-59
2022/10/30 03:29:15;;;;;;;17.70;11.63;;;;;;;12.14;100.00;98309.69;1777122;80;21005;-59
2022/10/30 03:31:44;;;;;;;16.45;11.78;;;;;;;12.13;100.00;98308.66;1772319;80;20959;-59
2022/10/30 03:34:15;;;;;;;14.00;10.53;;;;;;;12.14;100.00;98319.63;1770954;80;21582;-60
2022/10/30 03:36:42;;;;;;;14.85;10.50;;;;;;;12.13;100.00;98316.71;1769883;80;20978;-59
2022/10/30 03:39:09;;;;;;;15.53;11.65;;;;;;;12.11;100.00;98294.70;1775317;80;21485;-59
2022/10/30 03:41:36;;;;;;;19.98;12.10;;;;;;;12.08;100.00;98304.13;1771999;80;21035;-60
2022/10/30 03:44:03;;;;;;;17.92;11.65;;;;;;;12.05;100.00;98307.42;1775384;80;21461;-59
2022/10/30 03:46:30;;;;;;;14.15;10.72;;;;;;;12.00;100.00;98301.32;1771780;80;21687;-59
2022/10/30 03:48:59;;;;;;;14.75;11.63;;;;;;;11.97;100.00;98305.38;1768620;80;21458;-59
2022/10/30 03:51:26;;;;;;;17.73;12.23;;;;;;;11.96;100.00;98306.48;1774270;80;21416;-59
2022/10/30 03:53:53;;;;;;;20.68;11.95;;;;;;;11.94;100.00;98295.22;1771764;80;20994;-58
2022/10/30 03:56:20;;;;;;;15.85;11.55;;;;;;;11.93;100.00;98296.33;1776672;80;21024;-60
2022/10/30 03:58:49;;;;;;;19.70;11.35;;;;;;;11.94;100.00;98287.17;1775325;80;21650;-60
2022/10/30 04:01:17;;;;;;;19.85;12.60;;;;;;;11.98;100.00;98283.37;1774546;80;20962;-59
2022/10/30 04:03:46;;;;;;;22.32;13.15;;;;;;;11.98;100.00;98261.36;1776496;80;20915;-59
2022/10/30 04:06:12;;;;;;;17.12;12.40;;;;;;;12.00;100.00;98232.33;1773579;80;21479;-60
2022/10/30 04:08:39;;;;;;;17.32;12.40;;;;;;;11.99;100.00;98222.66;1771614;80;20991;-59
2022/10/30 04:11:11;;;;;;;17.40;11.70;;;;;;;11.98;100.00;98212.23;1772556;80;21208;-59
2022/10/30 04:13:39;;;;;;;18.10;12.75;;;;;;;11.95;100.00;98216.30;1747482;80;21059;-60
2022/10/30 04:16:07;;;;;;;21.27;13.15;;;;;;;11.93;100.00;98209.63;1773541;80;20982;-59
2022/10/30 04:18:33;;;;;;;17.82;12.55;;;;;;;11.94;100.00;98216.60;1774492;80;21502;-60
2022/10/30 04:21:01;;;;;;;15.03;11.75;;;;;;;11.95;100.00;98257.09;1772083;80;20983;-59
2022/10/30 04:23:27;;;;;;;20.65;12.58;;;;;;;11.94;100.00;98275.66;1787271;78;22115;-60
2022/10/30 04:25:54;;;;;;;16.42;12.60;;;;;;;11.93;100.00;98269.48;1778786;79;21071;-60
2022/10/30 04:28:21;;;;;;;18.00;12.35;;;;;;;11.91;100.00;98268.98;1784752;77;20915;-59
2022/10/30 04:30:48;;;;;;;22.58;12.00;;;;;;;11.91;100.00;98268.98;1770340;80;21572;-59
2022/10/30 04:33:15;;;;;;;18.75;12.10;;;;;;;11.90;100.00;98255.30;1786261;79;21003;-58
2022/10/30 04:35:44;;;;;;;19.12;12.82;;;;;;;11.89;100.00;98263.11;1771923;80;20892;-58
2022/10/30 04:38:13;;;;;;;16.70;12.20;;;;;;;11.87;100.00;98273.31;1789104;78;20944;-59
2022/10/30 04:40:43;;;;;;;19.02;12.75;;;;;;;11.86;100.00;98271.73;1786758;79;20935;-60
2022/10/30 04:43:11;;;;;;;17.73;12.43;;;;;;;11.84;100.00;98265.87;1791797;77;20908;-58
2022/10/30 04:45:40;;;;;;;17.25;11.55;;;;;;;11.84;100.00;98268.55;1792532;78;21030;-58
2022/10/30 04:48:14;;;;;;;18.48;13.25;;;;;;;11.83;100.00;98266.95;1775054;78;21105;-58
2022/10/30 04:50:43;;;;;;;18.73;13.47;;;;;;;11.83;100.00;98266.14;1784404;79;21486;-60
2022/10/30 04:53:17;;;;;;;17.85;12.20;;;;;;;11.84;100.00;98259.16;1797449;78;21081;-60
2022/10/30 04:55:47;;;;;;;16.15;12.33;;;;;;;11.83;100.00;98248.16;1783806;77;20912;-57
2022/10/30 04:58:14;;;;;;;18.98;12.70;;;;;;;11.82;100.00;98250.60;1780600;79;20896;-58
2022/10/30 05:00:44;;;;;;;18.00;13.72;;;;;;;11.82;100.00;98254.63;1788889;79;21061;-58
2022/10/30 05:03:18;;;;;;;21.07;13.72;;;;;;;11.82;100.00;98261.88;1776643;80;20994;-58
2022/10/30 05:06:05;;;;;;;18.35;12.85;;;;;;;11.81;100.00;98273.69;1787555;79;21479;-59
2022/10/30 05:08:34;;;;;;;23.18;13.05;;;;;;;11.81;100.00;98273.15;1767924;79;20909;-59
2022/10/30 05:11:05;;;;;;;16.37;12.78;;;;;;;11.80;100.00;98286.30;1782188;78;21017;-59
2022/10/30 05:13:32;;;;;;;16.35;13.40;;;;;;;11.81;100.00;98289.25;1795031;78;22051;-59
2022/10/30 05:15:59;;;;;;;15.50;12.50;;;;;;;11.82;100.00;98286.84;1786568;78;20892;-59
2022/10/30 05:18:26;;;;;;;18.25;11.97;;;;;;;11.84;100.00;98287.34;1791963;77;20976;-58
2022/10/30 05:20:54;;;;;;;20.82;12.70;;;;;;;11.85;100.00;98290.80;1786566;78;20911;-58
2022/10/30 05:23:23;;;;;;;17.60;13.20;;;;;;;11.88;100.00;98295.59;1778516;79;20880;-59
2022/10/30 05:25:51;;;;;;;18.37;13.40;;;;;;;11.88;100.00;98304.45;1760306;79;21656;-59
2022/10/30 05:28:17;;;;;;;16.87;13.10;;;;;;;11.87;100.00;98298.81;1795362;77;20936;-59
2022/10/30 05:30:46;;;;;;;17.23;12.30;;;;;;;11.90;100.00;98298.78;1793621;78;21077;-59
2022/10/30 05:33:17;;;;;;;16.60;12.50;;;;;;;11.93;100.00;98301.69;1782058;78;21411;-58
2022/10/30 05:35:45;;;;;;;15.70;12.45;;;;;;;11.96;100.00;98303.80;1791132;78;21003;-59
2022/10/30 05:38:11;;;;;;;18.10;13.45;;;;;;;11.97;100.00;98291.96;1787214;78;21985;-59
2022/10/30 05:40:38;;;;;;;15.48;12.37;;;;;;;11.93;100.00;98295.52;1748731;80;20930;-57
2022/10/30 05:43:06;;;;;;;19.17;12.13;;;;;;;11.91;100.00;98286.97;1771255;80;20939;-59
2022/10/30 05:45:33;;;;;;;18.55;12.33;;;;;;;11.91;100.00;98294.48;1773330;80;21105;-58
2022/10/30 05:48:02;;;;;;;19.42;12.93;;;;;;;11.92;100.00;98293.37;1771393;80;21585;-57
2022/10/30 05:50:32;;;;;;;18.32;13.10;;;;;;;11.90;100.00;98286.16;1789687;79;21490;-58
2022/10/30 05:53:17;;;;;;;17.25;12.40;;;;;;;11.90;100.00;98283.48;1784984;78;21071;-58
2022/10/30 05:55:44;;;;;;;17.25;12.10;;;;;;;11.91;100.00;98278.91;1782932;78;20932;-58
2022/10/30 05:58:13;;;;;;;18.52;12.30;;;;;;;11.89;100.00;98283.24;1796252;77;20940;-59
2022/10/30 06:00:43;;;;;;;19.02;12.73;;;;;;;11.90;100.00;98288.04;1793633;78;20907;-59
2022/10/30 06:03:11;;;;;;;16.60;12.50;;;;;;;11.91;100.00;98289.11;1790900;78;21102;-59
2022/10/30 06:05:44;;;;;;;17.50;11.93;;;;;;;11.96;100.00;98290.38;1777309;78;20875;-58
2022/10/30 06:08:11;;;;;;;19.20;13.18;;;;;;;11.99;100.00;98299.17;1775241;80;21492;-58
2022/10/30 06:10:39;;;;;;;23.47;15.20;;;;;;;12.02;100.00;98299.14;1751358;80;20999;-58
2022/10/30 06:13:20;;;;;;;19.95;14.20;;;;;;;12.04;100.00;98300.98;1791033;78;20891;-59
2022/10/30 06:15:49;;;;;;;17.00;11.03;;;;;;;12.04;100.00;98303.13;1784751;78;21296;-58
2022/10/30 06:18:16;;;;;;;16.80;12.33;;;;;;;12.03;100.00;98298.06;1787715;78;20986;-58
2022/10/30 06:20:50;;;;;;;17.60;13.03;;;;;;;12.04;100.00;98306.34;1786561;78;21002;-58
2022/10/30 06:23:25;;;;;;;;;;;;;;;12.05;100.00;98311.98;1794877;78;20960;-59
2022/10/30 06:25:54;;;;;;;16.55;11.63;;;;;;;12.07;100.00;98309.27;1785408;78;20140;-59
2022/10/30 06:28:23;;;;;;;23.62;12.73;;;;;;;12.07;100.00;98314.63;1793699;78;21116;-58
2022/10/30 06:30:54;;;;;;;18.23;11.97;;;;;;;12.08;100.00;98317.55;1785528;79;21034;-58
2022/10/30 06:33:21;;;;;;;18.37;13.08;;;;;;;12.11;100.00;98318.86;1788215;77;20876;-59
2022/10/30 06:35:50;;;;;;;17.73;11.85;;;;;;;12.11;100.00;98317.52;1786945;78;20904;-59
2022/10/30 06:43:44;;;;;;;16.12;13.00;;;;;;;12.04;100.00;98321.92;1780227;78;20907;-59
2022/10/30 06:46:19;;;;;;;18.00;12.88;;;;;;;12.05;100.00;98314.67;1784615;78;21054;-59
2022/10/30 06:48:45;;;;;;;19.85;13.25;;;;;;;12.04;100.00;98309.84;1790605;78;21110;-59
2022/10/30 06:51:14;;;;;;;22.52;12.65;;;;;;;12.03;100.00;98314.97;1784070;79;21033;-59
2022/10/30 06:53:40;;;;;;;19.25;12.68;;;;;;;12.03;100.00;98321.69;1789155;78;21207;-59
2022/10/30 06:56:25;;;;;;;16.23;12.78;;;;;;;12.04;100.00;98317.89;1794191;78;21511;-59
2022/10/30 06:58:54;;;;;;;17.70;13.62;;;;;;;12.12;100.00;98325.30;1785046;78;21006;-58
2022/10/30 07:01:31;;;;;;;16.90;12.95;;;;;;;12.22;100.00;98317.64;1790229;79;20988;-58
2022/10/30 07:04:03;;;;;;;19.50;12.80;;;;;;;12.28;100.00;98324.52;1778474;78;21058;-59
2022/10/30 07:06:30;;;;;;;15.43;12.78;;;;;;;12.34;100.00;98320.10;1772588;80;21229;-59
2022/10/30 07:08:58;;;;;;;18.30;13.13;;;;;;;12.41;100.00;98322.44;1794574;78;21506;-60
2022/10/30 07:11:26;;;;;;;17.37;13.53;;;;;;;12.48;100.00;98316.67;1788407;78;20939;-60
2022/10/30 07:14:09;;;;;;;16.93;12.40;;;;;;;12.53;100.00;98314.69;1785110;78;20983;-60
2022/10/30 07:16:41;;;;;;;17.92;11.60;;;;;;;12.54;100.00;98318.98;1789270;77;20903;-59
2022/10/30 07:19:08;;;;;;;15.03;12.13;;;;;;;12.58;100.00;98317.83;1787716;78;21814;-60
2022/10/30 07:21:36;;;;;;;17.37;12.25;;;;;;;12.61;100.00;98321.28;1796688;78;21050;-60
2022/10/30 07:24:06;;;;;;;18.92;12.28;;;;;;;12.62;100.00;98321.54;1799314;78;21454;-60
2022/10/30 07:26:51;;;;;;;15.30;11.53;;;;;;;12.59;100.00;98326.16;1676084;82;21049;-60
2022/10/30 07:29:22;;;;;;;16.30;11.43;;;;;;;12.61;100.00;98317.25;1767656;78;20924;-57
2022/10/30 07:31:51;;;;;;;17.80;10.95;;;;;;;12.73;100.00;98317.58;1782022;78;21122;-59
2022/10/30 07:34:33;;;;;;;16.02;11.50;;;;;;;12.86;100.00;98313.56;1775585;78;21375;-60
2022/10/30 07:37:10;;;;;;;14.20;11.25;;;;;;;12.93;100.00;98304.55;1746900;81;20959;-59
2022/10/30 07:39:41;;;;;;;15.35;11.00;;;;;;;13.00;100.00;98314.94;1784323;78;20907;-60
2022/10/30 07:42:16;;;;;;;14.93;10.08;;;;;;;13.05;100.00;98312.12;1785509;78;21050;-59
2022/10/30 07:44:44;;;;;;;12.45;9.85;;;;;;;13.07;98.55;98310.54;1786542;77;21227;-58
2022/10/30 07:47:13;;;;;;;15.13;11.05;;;;;;;13.05;98.35;98301.37;1794567;78;20857;-58
2022/10/30 07:49:44;;;;;;;15.98;11.03;;;;;;;13.03;96.90;98308.95;1783930;77;20911;-61
2022/10/30 07:52:13;;;;;;;13.90;9.98;;;;;;;12.99;97.15;98306.61;1773823;80;20982;-58
2022/10/30 07:54:40;;;;;;;16.45;9.88;;;;;;;12.98;97.00;98311.19;1772909;80;20938;-58
2022/10/30 07:57:08;;;;;;;13.80;9.98;;;;;;;13.01;97.21;98311.14;1792764;78;21249;-60
2022/10/30 07:59:52;;;;;;;17.95;10.08;;;;;;;13.09;97.56;98305.11;1735510;81;20951;-59
2022/10/30 08:02:26;;;;;;;17.52;10.58;;;;;;;13.20;97.16;98313.22;1774582;78;21040;-58
2022/10/30 08:05:10;;;;;;;15.20;9.65;;;;;;;13.30;96.63;98303.61;1785240;78;37728;-59
2022/10/30 08:07:45;;;;;;;15.25;10.10;;;;;;;13.30;95.82;98295.55;1781455;78;20968;-59
2022/10/30 08:10:14;;;;;;;15.55;8.85;;;;;;;13.31;95.07;98291.73;1772622;80;20983;-60
2022/10/30 08:12:42;;;;;;;15.70;9.40;;;;;;;13.27;93.89;98290.75;1771353;80;20853;-60
2022/10/30 08:15:10;;;;;;;12.68;9.45;;;;;;;13.23;93.44;98287.08;1788188;78;20887;-58
2022/10/30 08:17:44;;;;;;;15.88;8.83;;;;;;;13.18;93.51;98299.28;1787387;78;20943;-59
2022/10/30 08:20:15;;;;;;;12.88;8.45;;;;;;;13.13;93.84;98290.50;1792999;78;21573;-59
2022/10/30 08:22:54;;;;;;;13.30;8.63;;;;;;;13.12;94.08;98284.33;1791679;77;21063;-59
2022/10/30 08:25:27;;;;;;;11.83;8.58;;;;;;;13.10;94.17;98274.42;1793457;78;21082;-60
2022/10/30 08:28:03;;;;;;;15.28;9.28;;;;;;;13.13;94.00;98289.97;1789477;78;20934;-59
2022/10/30 08:30:33;;;;;;;13.75;9.80;;;;;;;13.17;93.63;98295.53;1788446;78;20912;-59
2022/10/30 08:33:02;;;;;;;10.88;8.38;;;;;;;13.15;93.29;98301.76;1792806;77;20948;-59
2022/10/30 08:35:50;;;;;;;11.40;9.03;;;;;;;13.13;93.35;98294.00;1779026;77;21680;-60
2022/10/30 08:38:18;;;;;;;14.83;9.60;;;;;;;13.24;93.38;98303.45;1801637;77;20904;-59
2022/10/30 08:40:47;;;;;;;14.28;9.33;;;;;;;13.42;92.87;98307.95;1792874;78;20896;-59
2022/10/30 08:43:14;;;;;;;11.25;8.73;;;;;;;13.57;90.85;98308.95;1789802;78;20911;-59
2022/10/30 08:45:43;;;;;;;14.40;8.75;;;;;;;13.70;90.07;98316.23;1792505;78;21021;-59
2022/10/30 08:48:13;;;;;;;13.68;9.03;;;;;;;13.82;89.81;98313.00;1786122;78;21352;-59
2022/10/30 08:50:41;;;;;;;14.23;9.30;;;;;;;13.94;88.66;98317.86;1772153;80;21439;-59
2022/10/30 08:53:11;;;;;;;16.35;8.55;;;;;;;14.03;87.16;98311.98;1788910;78;21092;-59
2022/10/30 08:55:37;;;;;;;13.53;8.20;;;;;;;14.00;85.61;98322.02;1792082;78;20971;-60
2022/10/30 08:58:06;;;;;;;13.65;8.23;;;;;;;13.90;85.34;98316.85;1786845;78;20868;-59
2022/10/30 09:00:34;;;;;;;11.83;8.05;;;;;;;13.82;85.48;98311.66;1775728;80;21564;-60
2022/10/30 09:03:09;;;;;;;11.97;7.70;;;;;;;13.81;85.49;98303.86;1793633;78;21336;-60
2022/10/30 09:05:58;;;;;;;13.85;7.05;;;;;;;13.81;84.81;98307.91;1787977;79;21466;-58
2022/10/30 09:08:42;;;;;;;13.43;7.05;;;;;;;13.91;83.97;98303.65;1790983;78;20892;-59
2022/10/30 09:11:12;;;;;;;12.73;7.10;;;;;;;14.04;83.86;98305.48;1786388;79;20927;-60
2022/10/30 09:13:39;;;;;;;9.73;6.65;;;;;;;14.13;83.91;98300.99;1794894;78;21427;-60
2022/10/30 09:16:07;;;;;;;11.63;7.90;;;;;;;14.19;82.99;98303.80;1796019;78;20994;-60
2022/10/30 09:18:35;;;;;;;12.78;7.80;;;;;;;14.26;82.49;98301.47;1766079;80;20869;-59
2022/10/30 09:21:02;;;;;;;13.05;7.40;;;;;;;14.30;82.93;98301.13;1794125;77;20880;-60
2022/10/30 09:23:30;;;;;;;11.45;8.23;;;;;;;14.43;83.06;98304.32;1791268;78;20949;-60
2022/10/30 09:25:59;;;;;;;12.88;7.83;;;;;;;14.58;81.79;98307.97;1788862;78;21096;-59
2022/10/30 09:28:30;;;;;;;11.33;7.30;;;;;;;14.60;81.54;98306.33;1778517;78;20995;-58
2022/10/30 09:31:05;;;;;;;13.70;8.00;;;;;;;14.54;82.05;98296.77;1790651;78;20864;-59
2022/10/30 09:33:33;;;;;;;9.40;7.00;;;;;;;14.57;81.94;98290.22;1786212;78;21070;-59
2022/10/30 09:36:19;;;;;;;10.28;6.80;;;;;;;14.61;81.53;98303.86;1793635;78;21006;-61
2022/10/30 09:38:47;;;;;;;12.53;7.10;;;;;;;14.69;81.64;98294.50;1774201;80;20891;-59
2022/10/30 09:41:40;;;;;;;10.88;7.08;;;;;;;14.85;81.16;98295.68;1782290;78;21573;-61
2022/10/30 09:44:31;;;;;;;13.22;7.25;;;;;;;15.05;81.11;98300.52;1792746;78;20939;-59
2022/10/30 09:47:32;;;;;;;11.45;7.00;;;;;;;15.33;80.59;98301.66;1781806;79;20979;-61
2022/10/30 09:50:33;;;;;;;9.15;6.97;;;;;;;15.42;77.47;98301.13;1783645;79;20923;-58
2022/10/30 09:53:38;;;;;;;9.38;6.53;;;;;;;15.28;76.07;98301.80;1770757;78;21298;-59
2022/10/30 09:56:28;;;;;;;9.58;6.33;;;;;;;15.19;76.19;98298.28;1779284;79;20892;-60
2022/10/30 09:59:37;;;;;;;9.15;6.37;;;;;;;15.09;74.57;98299.36;1796863;78;21399;-59
2022/10/30 10:02:13;;;;;;;12.23;6.67;;;;;;;14.96;72.13;98298.34;1795074;77;20975;-58
2022/10/30 10:04:45;;;;;;;8.43;5.80;;;;;;;14.86;72.96;98293.21;1794821;78;20928;-59
2022/10/30 10:07:29;;;;;;;9.25;6.70;;;;;;;14.82;73.46;98285.50;1789573;79;21229;-60
2022/10/30 10:10:03;;;;;;;12.25;7.08;;;;;;;14.87;72.87;98287.27;1782537;78;21483;-58
2022/10/30 10:12:47;;;;;;;11.50;6.78;;;;;;;14.86;73.00;98289.16;1788601;78;21387;-58
2022/10/30 10:15:42;;;;;;;10.13;6.37;;;;;;;14.82;72.85;98288.20;1775974;80;21120;-59
2022/10/30 10:18:17;;;;;;;9.73;6.55;;;;;;;14.80;72.52;98281.53;1784353;79;20884;-58
2022/10/30 10:20:47;;;;;;;10.50;7.10;;;;;;;14.84;72.87;98279.80;1779355;78;21556;-59
2022/10/30 10:23:47;;;;;;;10.60;7.00;;;;;;;14.92;73.01;98273.11;1773637;80;21459;-60
2022/10/30 10:26:28;;;;;;;14.30;6.90;;;;;;;15.04;73.30;98273.31;1788427;77;21157;-59
2022/10/30 10:29:03;;;;;;;9.70;7.20;;;;;;;15.18;73.62;98271.05;1795109;78;21387;-58
2022/10/30 10:31:47;;;;;;;8.78;6.80;;;;;;;15.24;72.85;98270.58;1772308;80;20916;-61
2022/10/30 10:34:50;;;;;;;15.25;7.58;;;;;;;15.31;72.08;98268.80;1754911;80;21318;-60
2022/10/30 10:37:56;;;;;;;9.60;7.00;;;;;;;15.33;72.72;98264.65;1793269;78;20849;-59
2022/10/30 10:40:52;;;;;;;11.75;6.03;;;;;;;15.42;72.70;98264.69;1784979;79;20880;-58
2022/10/30 10:43:51;;;;;;;8.23;5.78;;;;;;;15.53;69.41;98271.40;1786751;78;20959;-59
2022/10/30 10:46:36;;;;;;;12.63;6.83;;;;;;;15.54;68.81;98257.61;1781837;79;20927;-59
2022/10/30 10:49:35;;;;;;;10.23;6.28;;;;;;;15.60;68.44;98262.28;1743770;78;21128;-59
2022/10/30 10:52:19;;;;;;;11.53;6.60;;;;;;;15.55;68.20;98267.83;1790912;77;20975;-58
2022/10/30 10:54:56;;;;;;;11.18;5.65;;;;;;;15.42;68.61;98255.23;1787623;78;21450;-60
2022/10/30 10:57:33;;;;;;;10.60;6.35;;;;;;;15.37;68.58;98251.34;1786696;78;20908;-60
2022/10/30 11:00:08;;;;;;;6.28;4.97;;;;;;;15.44;68.61;98255.20;1782431;79;21394;-60
2022/10/30 11:02:38;;;;;;;;;;;;;;;15.55;66.14;98251.08;1774445;80;21202;-59
2022/10/30 11:05:32;;;;;;;9.83;5.17;;;;;;;15.62;66.67;98247.91;1786180;78;20127;-58
2022/10/30 11:08:13;;;;;;;7.37;4.55;;;;;;;15.68;64.07;98252.05;1786923;78;21352;-59
2022/10/30 11:10:40;;;;;;;8.88;4.92;;;;;;;15.68;64.36;98242.61;1778954;78;21427;-61
2022/10/30 11:13:13;;;;;;;7.20;4.22;;;;;;;15.78;64.22;98236.87;1786492;78;21073;-60
2022/10/30 11:16:00;;;;;;;7.25;4.83;;;;;;;15.90;63.30;98232.98;1783594;77;21066;-59
2022/10/30 11:18:27;;;;;;;6.55;4.30;;;;;;;15.95;60.90;98233.37;1787622;78;20892;-59
2022/10/30 11:21:07;;;;;;;8.35;4.75;;;;;;;15.94;60.28;98236.65;1795431;78;21414;-58
2022/10/30 11:23:40;;;;;;;8.13;4.55;;;;;;;15.97;60.10;98233.88;1770534;80;21163;-61
2022/10/30 11:26:24;;;;;;;8.35;4.75;;;;;;;15.96;60.71;98228.22;1773926;80;20999;-61
2022/10/30 11:29:02;;;;;;;6.72;4.65;;;;;;;15.97;60.87;98231.94;1774900;80;21231;-59
2022/10/30 11:31:36;;;;;;;8.30;4.45;;;;;;;16.05;60.58;98233.05;1764813;78;20861;-59
2022/10/30 11:34:33;;;;;;;7.90;5.45;;;;;;;16.16;60.49;98235.66;1793142;78;21098;-60
2022/10/30 11:37:00;;;;;;;6.28;4.50;;;;;;;16.27;60.44;98226.89;1791237;78;20951;-58
2022/10/30 11:39:33;;;;;;;6.40;4.30;;;;;;;16.39;59.36;98232.43;1783530;78;20893;-58
2022/10/30 11:42:12;;;;;;;9.20;4.50;;;;;;;16.43;58.75;98232.05;1793183;77;21035;-59
2022/10/30 11:44:49;;;;;;;7.35;4.03;;;;;;;16.48;58.46;98226.22;1787104;78;20892;-61
2022/10/30 11:47:20;;;;;;;7.75;4.28;;;;;;;16.44;59.06;98226.86;1793921;77;20944;-61
2022/10/30 11:49:58;;;;;;;6.95;4.28;;;;;;;16.47;58.19;98225.42;1791481;77;20990;-60